Terminal Aerodrome Forecast
Issued by NWS Green Bay, WI

Home | Current Version | Previous Version | Text Only | Print | Product List | Glossary On
Versions: 1 2 3 4 5 6 7 8 9 10 11 12 13 14 15 16 17 18 19 20 21 22 23 24 25 26 27 28 29 30
000
FTUS43 KGRB 251100
TAFGRB
TAF
KGRB 251120Z 2512/2612 27006KT P6SM SCT012 WS017/30035KT
      TEMPO 2512/2514 4SM BR
     FM251500 28014G24KT P6SM SKC
     FM252300 28008KT P6SM SKC=

USA.gov is the U.S. government's official web portal to all federal, state and local government web resources and services.